Airfield :
LOGIN :

Register | Disclaimer

   EN    FR    IT 

 










Legend :    VFR   Marginal VFR   IFR   Intensive IFR   Very Intensive IFR
Visi :
Ceiling :
>= 8 km
>= 3000ft
5 to 8 km
1000 to 3000 ft
1500m to 5 km
500 to 1000 ft
800 to 1500m
200 to 500 ft
< 800m
< 200 ft
Symbols :   Thunderstorms  Fog  Heavy snow  Heavy precipitations  Wind > 20 kt
SIGMETs :     Misc.  Thunderstorms  Icing  Turbulence  Mountain Waves  Volcanic Ashes







- Airport Elevation : 1487 ft
- IATA code : MUC


EDDM - München Franz Josef Strauss

CURRENT METAR :
  • 101650Z 25010KT 9999 FEW014 SCT043 02/01 Q1019 NOSIG

EXPIRED METARs :
  • 101620Z 26011KT 9999 FEW013 FEW029TCU 02/01 Q1019 NOSIG
  • 101550Z 27012KT 9999 FEW013 FEW022CB 02/01 Q1019 NOSIG
  • 101520Z 27014KT 9999 -SHRA FEW013 SCT020CB BKN042 03/01 Q1019 NOSIG
  • 101450Z 27013KT 9999 -SHRA FEW018 SCT022TCU 03/01 Q1019 TEMPO 4000 SHSNRA
  • 101420Z 26012KT 9999 FEW018 FEW023TCU 03/00 Q1019 NOSIG

TAF TAF EDDM
Valid from the 10 at 12:00 until the 11 at 18:00 UTC


101100Z 1012/1118 27012KT 9999 BKN020
TEMPO 1012/1017 4000 -SHSNRA BKN012TCU
TEMPO 1017/1022 30015G30KT 2000 SHSN BKN007 BKN012CB
TEMPO 1106/1118 3000 -SHSN BKN012TCU
No reported NOTAMs for that airfield.



MET'MAP, your aeronautical weather chart ! - Copyright ORBIFLY December 2007 - Disclaimer

ORBIFLY MET'MAP TEAM :

Programming & Development : Alexandra Zaïnal
Concept & Development : Baudouin d'Aumeries
Co-Development & Prog : Marc-Olivier Méhu
Technical & hardware support : Manuel Goepfert

Contact : metmap@orbifly.com




SOURCES & CREDITS :

   NOAA